Terminal Aerodrome Forecast
Issued by NWS Twin Cities, MN

Home | Current Version | Previous Version | Graphics & Text | Print | Product List | Glossary On
Versions: 1 2 3 4 5 6 7 8 9 10 11 12 13
000
FTUS43 KMPX 260600 AAA
TAFSTC
TAF AMD
KSTC 260633Z 2607/2706 36006KT P6SM SCT020 OVC040
     FM260830 36008KT 3SM BR OVC004
     FM261400 35010KT 6SM BR OVC009
     FM261800 34009KT P6SM OVC014=

USA.gov is the U.S. government's official web portal to all federal, state and local government web resources and services.